Airfield :







YOU CAN JOIN US ON...

 
LOGIN :

Register | Disclaimer

   EN    FR    IT 

 









Legend :    VFR   Marginal VFR   IFR   Intensive IFR   Very Intensive IFR
Visi :
Ceiling :
>= 8 km
>= 3000ft
5 to 8 km
1000 to 3000 ft
1500m to 5 km
500 to 1000 ft
800 to 1500m
200 to 500 ft
< 800m
< 200 ft
Symbols :   Thunderstorms  Fog  Heavy snow  Heavy precipitations  Wind > 20 kt






- Airport Elevation : 171 ft
- IATA code : KEF


BIKF - Keflavik International

CURRENT METAR :
  • 080330Z 09011KT 9999 FEW022 SCT320 M01/M02 Q0992

EXPIRED METARs :
  • 080300Z 09010KT 9999 FEW011 SCT025 M01/M02 Q0991
  • 080231Z 10011KT 9999 -SHSN FEW012 SCT020CB M01/M01 Q0991
  • 080200Z 10015KT 9999 -SHSN FEW005 SCT014CB BKN160 M01/M01 Q0990
  • 080131Z 09011KT 9000 -SHSN FEW007 BKN014CB BKN150 M01/M01 Q0990
  • 080100Z 08016KT 9999 FEW020TCU SCT160 M00/M03 Q0990

TAF TAF BIKF
Valid from the 08 at 03:00 until the 09 at 03:00 UTC


080133Z 0803/0903 10015KT 9999 -SHSN SCT020CB BKN035 TX03/0818Z TNM02/0806Z
TEMPO 0803/0814 11017G27KT 1000 SHSN BKN010CB
BECMG 0814/0816 14025KT
TEMPO 0814/0903 13028G40KT 2000 SHRASN BKN008TCU



MET'MAP, your aeronautical weather chart ! - Copyright ORBIFLY December 2007 - Disclaimer

ORBIFLY MET'MAP TEAM :

Programming & Development : Alexandra Zaïnal
Concept & original design : Baudouin d'Aumeries
Assistance for programming : Marc-Olivier Méhu
Technical & hardware support : Manuel Goepfert

Contact : metmap@orbifly.com




SOURCES & CREDITS :

   NOAA